Time,TemperatureF,DewpointF,PressureIn,WindDirection,WindDirectionDegrees,WindSpeedMPH,WindSpeedGustMPH,Humidity,HourlyPrecipIn,Conditions,Clouds,dailyrainin,SoftwareType,DateUTC
2013-03-29 00:00:00,39.9,21.3,30.33,NW,314,0.0,0.0,47,0.00,CLR,,0.06,WeatherDisplay:10.37,2013-03-29 04:00:00,
2013-03-29 00:05:00,39.8,21.2,30.33,NW,314,0.0,0.0,47,0.00,RA,,0.00,WeatherDisplay:10.37,2013-03-29 04:05:00,
2013-03-29 00:10:00,39.7,21.1,30.33,NW,314,0.0,0.0,47,0.00,CLR,,0.00,WeatherDisplay:10.37,2013-03-29 04:10:00,
2013-03-29 00:15:00,39.7,21.1,30.32,NW,314,0.0,0.0,47,0.00,CLR,,0.00,WeatherDisplay:10.37,2013-03-29 04:15:00,
2013-03-29 00:20:00,39.7,21.6,30.32,NW,314,0.0,0.0,48,0.00,CLR,,0.00,WeatherDisplay:10.37,2013-03-29 04:20:00,
2013-03-29 00:25:00,39.6,21.5,30.32,NW,314,0.0,0.0,48,0.00,CLR,,0.00,WeatherDisplay:10.37,2013-03-29 04:25:00,
2013-03-29 00:30:00,39.4,21.3,30.32,NW,314,0.0,0.0,48,0.00,CLR,,0.00,WeatherDisplay:10.37,2013-03-29 04:30:00,
2013-03-29 00:35:00,39.3,21.2,30.32,NW,314,0.0,0.0,48,0.00,CLR,,0.00,WeatherDisplay:10.37,2013-03-29 04:35:00,
2013-03-29 00:40:00,39.2,21.6,30.33,NW,315,0.0,0.0,49,0.00,CLR,,0.00,WeatherDisplay:10.37,2013-03-29 04:40:00,
2013-03-29 00:45:00,39.3,21.7,30.33,NW,314,0.0,0.0,49,0.00,CLR,,0.00,WeatherDisplay:10.37,2013-03-29 04:45:00,
2013-03-29 00:50:00,39.3,21.7,30.33,NW,314,0.0,0.0,49,0.00,CLR,,0.00,WeatherDisplay:10.37,2013-03-29 04:50:00,
2013-03-29 00:55:00,39.3,21.7,30.33,NW,314,1.1,1.1,49,0.00,CLR,,0.00,WeatherDisplay:10.37,2013-03-29 04:55:00,
2013-03-29 01:00:00,39.2,22.1,30.33,NW,314,0.0,0.0,50,0.00,CLR,,0.00,WeatherDisplay:10.37,2013-03-29 05:00:00,
2013-03-29 01:05:00,39.1,22.0,30.33,NW,314,0.0,0.0,50,0.00,CLR,,0.00,WeatherDisplay:10.37,2013-03-29 05:05:00,
2013-03-29 01:10:00,39.1,22.5,30.33,NW,314,0.0,0.0,51,0.00,CLR,,0.00,WeatherDisplay:10.37,2013-03-29 05:10:00,
2013-03-29 01:15:00,39.0,23.3,30.32,NW,314,0.0,0.0,53,0.00,CLR,,0.00,WeatherDisplay:10.37,2013-03-29 05:15:00,
2013-03-29 01:20:00,38.8,23.1,30.32,NW,314,0.0,0.0,53,0.00,CLR,,0.00,WeatherDisplay:10.37,2013-03-29 05:20:00,
2013-03-29 01:25:00,38.5,22.8,30.32,NW,314,0.0,0.0,53,0.00,CLR,,0.00,WeatherDisplay:10.37,2013-03-29 05:25:00,
2013-03-29 01:30:00,38.2,22.6,30.32,NW,314,0.0,0.0,53,0.00,CLR,,0.00,WeatherDisplay:10.37,2013-03-29 05:30:00,
2013-03-29 01:35:00,37.9,22.7,30.32,NW,314,0.0,0.0,54,0.00,CLR,,0.00,WeatherDisplay:10.37,2013-03-29 05:35:00,
2013-03-29 01:40:00,37.7,23.0,30.32,NW,314,0.0,0.0,55,0.00,CLR,,0.00,WeatherDisplay:10.37,2013-03-29 05:40:00,
2013-03-29 01:45:00,37.4,22.7,30.32,NW,314,0.0,0.0,55,0.00,CLR,,0.00,WeatherDisplay:10.37,2013-03-29 05:45:00,
2013-03-29 01:50:00,37.1,23.3,30.32,NW,314,0.0,0.0,57,0.00,CLR,,0.00,WeatherDisplay:10.37,2013-03-29 05:50:00,
2013-03-29 01:55:00,37.0,23.2,30.32,NW,314,1.2,0.0,57,0.00,CLR,,0.00,WeatherDisplay:10.37,2013-03-29 05:55:00,
2013-03-29 02:00:00,37.0,23.2,30.32,NW,314,0.0,0.0,57,0.00,CLR,,0.00,WeatherDisplay:10.37,2013-03-29 06:00:00,
2013-03-29 02:05:00,36.7,22.9,30.33,NW,314,0.0,0.0,57,0.00,CLR,,0.00,WeatherDisplay:10.37,2013-03-29 06:05:00,
2013-03-29 02:10:00,36.5,22.7,30.32,NW,314,0.0,0.0,57,0.00,CLR,,0.00,WeatherDisplay:10.37,2013-03-29 06:10:00,
2013-03-29 02:15:00,36.3,22.9,30.32,NW,314,0.0,0.0,58,0.00,CLR,,0.00,WeatherDisplay:10.37,2013-03-29 06:15:00,
2013-03-29 02:20:00,36.2,23.2,30.32,NW,314,0.0,0.0,59,0.00,CLR,,0.00,WeatherDisplay:10.37,2013-03-29 06:20:00,
2013-03-29 02:25:00,36.0,23.4,30.32,NW,314,0.0,0.0,60,0.00,CLR,,0.00,WeatherDisplay:10.37,2013-03-29 06:25:00,
2013-03-29 02:30:00,35.8,23.3,30.32,NW,314,0.0,0.0,60,0.00,CLR,,0.00,WeatherDisplay:10.37,2013-03-29 06:30:00,
2013-03-29 02:35:00,35.6,23.1,30.32,NW,314,0.0,0.0,60,0.00,CLR,,0.00,WeatherDisplay:10.37,2013-03-29 06:35:00,
2013-03-29 02:40:00,35.4,22.9,30.33,NW,314,0.0,0.0,60,0.00,CLR,,0.00,WeatherDisplay:10.37,2013-03-29 06:40:00,
2013-03-29 02:45:00,35.2,23.1,30.33,NW,314,0.0,0.0,61,0.00,CLR,,0.00,WeatherDisplay:10.37,2013-03-29 06:45:00,
2013-03-29 02:50:00,35.1,23.0,30.33,NW,314,0.0,0.0,61,0.00,CLR,,0.00,WeatherDisplay:10.37,2013-03-29 06:50:00,
2013-03-29 02:55:00,34.9,23.2,30.33,NW,314,0.0,0.0,62,0.00,CLR,,0.00,WeatherDisplay:10.37,2013-03-29 06:55:00,
2013-03-29 03:00:00,34.8,22.7,30.33,NW,314,0.0,0.0,61,0.00,CLR,,0.00,WeatherDisplay:10.37,2013-03-29 07:00:00,
2013-03-29 03:05:00,34.7,23.4,30.33,NW,314,0.0,0.0,63,0.00,CLR,,0.00,WeatherDisplay:10.37,2013-03-29 07:05:00,
2013-03-29 03:10:00,34.7,22.6,30.32,NW,314,0.0,0.0,61,0.00,CLR,,0.00,WeatherDisplay:10.37,2013-03-29 07:10:00,
2013-03-29 03:15:00,34.6,22.9,30.32,NW,314,0.0,0.0,62,0.00,CLR,,0.00,WeatherDisplay:10.37,2013-03-29 07:15:00,
2013-03-29 03:20:00,34.6,23.3,30.32,NW,314,0.0,0.0,63,0.00,CLR,,0.00,WeatherDisplay:10.37,2013-03-29 07:20:00,
2013-03-29 03:25:00,34.5,23.2,30.32,NW,314,0.0,0.0,63,0.00,CLR,,0.00,WeatherDisplay:10.37,2013-03-29 07:25:00,
2013-03-29 03:30:00,34.4,23.5,30.32,NW,314,1.2,1.2,64,0.00,CLR,,0.00,WeatherDisplay:10.37,2013-03-29 07:30:00,
2013-03-29 03:35:00,34.3,22.2,30.32,NW,314,0.0,0.0,61,0.00,CLR,,0.00,WeatherDisplay:10.37,2013-03-29 07:35:00,
2013-03-29 03:40:00,34.2,23.7,30.32,NW,314,1.2,1.2,65,0.00,CLR,,0.00,WeatherDisplay:10.37,2013-03-29 07:40:00,
2013-03-29 03:45:00,34.1,23.2,30.32,NW,314,0.0,0.0,64,0.00,CLR,,0.00,WeatherDisplay:10.37,2013-03-29 07:45:00,
2013-03-29 03:50:00,33.9,23.4,30.32,NW,314,0.0,0.0,65,0.00,CLR,,0.00,WeatherDisplay:10.37,2013-03-29 07:50:00,
2013-03-29 03:55:00,33.8,22.9,30.31,NW,314,0.0,0.0,64,0.00,CLR,,0.00,WeatherDisplay:10.37,2013-03-29 07:55:00,
2013-03-29 04:01:00,33.7,23.9,30.31,NW,314,2.3,2.3,67,0.00,CLR,,0.00,WeatherDisplay:10.37,2013-03-29 08:01:00,
2013-03-29 04:06:00,33.5,23.7,30.32,NW,314,0.0,0.0,67,0.00,CLR,,0.00,WeatherDisplay:10.37,2013-03-29 08:06:00,
2013-03-29 04:11:00,33.4,23.6,30.31,NW,314,0.0,0.0,67,0.00,CLR,,0.00,WeatherDisplay:10.37,2013-03-29 08:11:00,
2013-03-29 04:16:00,33.2,23.8,30.31,NW,314,0.0,0.0,68,0.00,CLR,,0.00,WeatherDisplay:10.37,2013-03-29 08:16:00,
2013-03-29 04:21:00,33.0,23.9,30.31,NW,314,2.3,2.3,69,0.00,CLR,,0.00,WeatherDisplay:10.37,2013-03-29 08:21:00,
2013-03-29 04:26:00,32.8,23.7,30.32,NW,314,0.0,0.0,69,0.00,CLR,,0.00,WeatherDisplay:10.37,2013-03-29 08:26:00,
2013-03-29 04:31:00,32.8,23.0,30.32,NW,314,0.0,0.0,67,0.00,CLR,,0.00,WeatherDisplay:10.37,2013-03-29 08:31:00,
2013-03-29 04:36:00,32.9,22.8,30.32,NW,314,0.0,0.0,66,0.00,CLR,,0.00,WeatherDisplay:10.37,2013-03-29 08:36:00,
2013-03-29 04:41:00,32.9,22.4,30.32,NW,314,0.0,0.0,65,0.00,CLR,,0.00,WeatherDisplay:10.37,2013-03-29 08:41:00,
2013-03-29 04:46:00,33.0,23.6,30.32,NW,314,1.2,1.2,68,0.00,CLR,,0.00,WeatherDisplay:10.37,2013-03-29 08:46:00,
2013-03-29 04:51:00,32.9,23.8,30.31,NW,314,0.0,0.0,69,0.00,CLR,,0.00,WeatherDisplay:10.37,2013-03-29 08:51:00,
2013-03-29 04:56:00,32.8,23.7,30.31,NW,314,0.0,0.0,69,0.00,CLR,,0.00,WeatherDisplay:10.37,2013-03-29 08:56:00,
2013-03-29 05:01:00,32.7,24.0,30.31,NW,314,0.0,0.0,70,0.00,CLR,,0.00,WeatherDisplay:10.37,2013-03-29 09:01:00,
2013-03-29 05:06:00,32.6,23.9,30.31,NW,314,0.0,0.0,70,0.00,CLR,,0.00,WeatherDisplay:10.37,2013-03-29 09:06:00,
2013-03-29 05:11:00,32.4,24.0,30.31,NW,314,0.0,0.0,71,0.00,CLR,,0.00,WeatherDisplay:10.37,2013-03-29 09:11:00,
2013-03-29 05:16:00,32.2,23.8,30.31,NW,314,0.0,0.0,71,0.00,CLR,,0.00,WeatherDisplay:10.37,2013-03-29 09:16:00,
2013-03-29 05:21:00,32.1,23.8,30.31,NW,314,0.0,0.0,71,0.00,CLR,,0.00,WeatherDisplay:10.37,2013-03-29 09:21:00,
2013-03-29 05:26:00,31.9,23.9,30.31,NW,314,1.2,0.0,72,0.00,CLR,,0.00,WeatherDisplay:10.37,2013-03-29 09:26:00,
2013-03-29 05:31:00,31.8,23.8,30.31,NW,314,0.0,0.0,72,0.00,CLR,,0.00,WeatherDisplay:10.37,2013-03-29 09:31:00,
2013-03-29 05:36:00,31.7,23.7,30.31,NW,314,2.2,2.2,72,0.00,CLR,,0.00,WeatherDisplay:10.37,2013-03-29 09:36:00,
2013-03-29 05:41:00,31.6,23.6,30.31,NW,314,0.0,0.0,72,0.00,CLR,,0.00,WeatherDisplay:10.37,2013-03-29 09:41:00,
2013-03-29 05:46:00,31.5,23.8,30.31,NW,314,0.0,0.0,73,0.00,CLR,,0.00,WeatherDisplay:10.37,2013-03-29 09:46:00,
2013-03-29 05:51:00,31.4,23.4,30.31,NW,314,0.0,0.0,72,0.00,CLR,,0.00,WeatherDisplay:10.37,2013-03-29 09:51:00,
2013-03-29 05:56:00,31.4,24.1,30.31,NW,314,2.3,2.3,74,0.00,CLR,,0.00,WeatherDisplay:10.37,2013-03-29 09:56:00,
2013-03-29 06:01:00,31.3,24.3,30.31,NW,314,2.3,2.3,75,0.00,CLR,,0.00,WeatherDisplay:10.37,2013-03-29 10:01:00,
2013-03-29 06:06:00,31.2,24.5,30.30,NW,314,0.0,0.0,76,0.00,CLR,,0.00,WeatherDisplay:10.37,2013-03-29 10:06:00,
2013-03-29 06:11:00,31.0,24.0,30.31,NW,314,0.0,0.0,75,0.00,CLR,,0.00,WeatherDisplay:10.37,2013-03-29 10:11:00,
2013-03-29 06:16:00,30.9,24.2,30.31,NW,314,0.0,0.0,76,0.00,CLR,,0.00,WeatherDisplay:10.37,2013-03-29 10:16:00,
2013-03-29 06:21:00,30.7,24.0,30.31,NW,314,2.3,0.0,76,0.00,CLR,,0.00,WeatherDisplay:10.37,2013-03-29 10:21:00,
2013-03-29 06:26:00,30.7,24.3,30.31,NW,314,0.0,0.0,77,0.00,CLR,,0.00,WeatherDisplay:10.37,2013-03-29 10:26:00,
2013-03-29 06:31:00,30.6,23.9,30.31,NW,314,0.0,0.0,76,0.00,CLR,,0.00,WeatherDisplay:10.37,2013-03-29 10:31:00,
2013-03-29 06:37:00,30.5,24.5,30.31,NW,314,0.0,0.0,78,0.00,CLR,,0.00,WeatherDisplay:10.37,2013-03-29 10:37:00,
2013-03-29 06:42:00,30.4,24.7,30.31,NW,314,0.0,0.0,79,0.00,CLR,,0.00,WeatherDisplay:10.37,2013-03-29 10:42:00,
2013-03-29 06:47:00,30.3,24.6,30.31,NW,314,0.0,0.0,79,0.00,CLR,,0.00,WeatherDisplay:10.37,2013-03-29 10:47:00,
2013-03-29 06:52:00,30.1,23.8,30.31,NW,314,0.0,0.0,77,0.00,CLR,,0.00,WeatherDisplay:10.37,2013-03-29 10:52:00,
2013-03-29 06:57:00,30.1,24.1,30.31,NW,314,0.0,0.0,78,0.00,CLR,,0.00,WeatherDisplay:10.37,2013-03-29 10:57:00,
2013-03-29 07:02:00,30.0,24.0,30.32,NW,314,0.0,0.0,78,0.00,CLR,,0.00,WeatherDisplay:10.37,2013-03-29 11:02:00,
2013-03-29 07:07:00,30.0,24.0,30.31,NW,314,0.0,0.0,78,0.00,CLR,,0.00,WeatherDisplay:10.37,2013-03-29 11:07:00,
2013-03-29 07:12:00,30.0,24.0,30.32,NW,314,0.0,0.0,78,0.00,CLR,,0.00,WeatherDisplay:10.37,2013-03-29 11:12:00,
2013-03-29 07:17:00,29.9,23.9,30.32,NW,314,0.0,0.0,78,0.00,CLR,,0.00,WeatherDisplay:10.37,2013-03-29 11:17:00,
2013-03-29 07:22:00,29.9,23.9,30.32,NW,314,0.0,0.0,78,0.00,CLR,,0.00,WeatherDisplay:10.37,2013-03-29 11:22:00,
2013-03-29 07:27:00,30.0,24.3,30.32,NW,314,0.0,0.0,79,0.00,CLR,,0.00,WeatherDisplay:10.37,2013-03-29 11:27:00,
2013-03-29 07:32:00,29.9,24.2,30.33,NW,314,1.2,0.0,79,0.00,CLR,,0.00,WeatherDisplay:10.37,2013-03-29 11:32:00,
2013-03-29 07:37:00,29.9,24.5,30.33,NW,314,0.0,0.0,80,0.00,CLR,,0.00,WeatherDisplay:10.37,2013-03-29 11:37:00,
2013-03-29 07:42:00,29.9,24.8,30.32,NW,314,0.0,0.0,81,0.00,CLR,,0.00,WeatherDisplay:10.37,2013-03-29 11:42:00,
2013-03-29 07:47:00,29.9,24.8,30.32,NW,314,0.0,0.0,81,0.00,CLR,,0.00,WeatherDisplay:10.37,2013-03-29 11:47:00,
2013-03-29 07:52:00,29.8,24.7,30.32,NW,314,0.0,0.0,81,0.00,CLR,,0.00,WeatherDisplay:10.37,2013-03-29 11:52:00,
2013-03-29 07:57:00,29.7,24.9,30.33,NW,314,0.0,0.0,82,0.00,CLR,,0.00,WeatherDisplay:10.37,2013-03-29 11:57:00,
2013-03-29 08:02:00,29.6,24.5,30.33,NW,314,0.0,0.0,81,0.00,CLR,,0.00,WeatherDisplay:10.37,2013-03-29 12:02:00,
2013-03-29 08:07:00,29.5,24.4,30.33,East,85,2.3,2.3,81,0.00,CLR,,0.00,WeatherDisplay:10.37,2013-03-29 12:07:00,
2013-03-29 08:12:00,29.5,24.7,30.33,East,96,0.0,0.0,82,0.00,CLR,,0.00,WeatherDisplay:10.37,2013-03-29 12:12:00,
2013-03-29 08:17:00,29.6,24.8,30.33,East,96,0.0,0.0,82,0.00,CLR,,0.00,WeatherDisplay:10.37,2013-03-29 12:17:00,
2013-03-29 08:22:00,29.7,24.6,30.34,East,96,0.0,0.0,81,0.00,CLR,,0.00,WeatherDisplay:10.37,2013-03-29 12:22:00,
2013-03-29 08:27:00,29.7,24.9,30.34,East,96,0.0,0.0,82,0.00,CLR,,0.00,WeatherDisplay:10.37,2013-03-29 12:27:00,
2013-03-29 08:32:00,29.8,25.0,30.34,East,96,0.0,0.0,82,0.00,CLR,,0.00,WeatherDisplay:10.37,2013-03-29 12:32:00,
2013-03-29 08:37:00,29.9,24.8,30.34,East,96,0.0,0.0,81,0.00,CLR,,0.00,WeatherDisplay:10.37,2013-03-29 12:37:00,
2013-03-29 08:42:00,30.1,25.8,30.35,East,96,0.0,0.0,84,0.00,CLR,,0.00,WeatherDisplay:10.37,2013-03-29 12:42:00,
2013-03-29 08:47:00,30.1,25.3,30.35,East,96,0.0,0.0,82,0.00,CLR,,0.00,WeatherDisplay:10.37,2013-03-29 12:47:00,
2013-03-29 08:52:00,30.3,25.2,30.35,East,96,0.0,0.0,81,0.00,CLR,,0.00,WeatherDisplay:10.37,2013-03-29 12:52:00,
2013-03-29 08:57:00,30.5,26.0,30.35,East,96,0.0,0.0,83,0.00,CLR,,0.00,WeatherDisplay:10.37,2013-03-29 12:57:00,
2013-03-29 09:02:00,30.8,26.0,30.35,East,96,0.0,0.0,82,0.00,CLR,,0.00,WeatherDisplay:10.37,2013-03-29 13:02:00,
2013-03-29 09:07:00,31.1,26.5,30.35,East,96,1.2,1.2,83,0.00,CLR,,0.00,WeatherDisplay:10.37,2013-03-29 13:07:00,
2013-03-29 09:10:00,31.3,26.4,30.35,East,96,0.0,0.0,82,0.00,CLR,,0.00,WeatherDisplay:10.37,2013-03-29 13:10:00,
2013-03-29 09:12:00,31.3,26.4,30.35,East,96,0.0,0.0,82,0.00,CLR,,0.00,WeatherDisplay:10.37,2013-03-29 13:12:00,
2013-03-29 09:17:00,31.3,26.4,30.35,East,96,0.0,0.0,82,0.00,CLR,,0.00,WeatherDisplay:10.37,2013-03-29 13:17:00,
2013-03-29 09:24:00,31.4,26.5,30.35,East,96,0.0,0.0,82,0.00,CLR,,0.00,WeatherDisplay:10.37,2013-03-29 13:24:00,
2013-03-29 09:29:00,32.3,27.1,30.35,ENE,63,0.0,0.0,81,0.00,CLR,,0.00,WeatherDisplay:10.37,2013-03-29 13:29:00,
2013-03-29 09:34:00,32.5,27.6,30.35,ENE,63,0.0,0.0,82,0.00,CLR,,0.00,WeatherDisplay:10.37,2013-03-29 13:34:00,
2013-03-29 09:39:00,32.8,27.0,30.36,ENE,63,0.0,0.0,79,0.00,CLR,,0.00,WeatherDisplay:10.37,2013-03-29 13:39:00,
2013-03-29 09:44:00,33.1,27.0,30.35,ENE,63,0.0,0.1,78,0.00,CLR,,0.00,WeatherDisplay:10.37,2013-03-29 13:44:00,
2013-03-29 09:49:00,33.4,27.6,30.35,ENE,63,0.0,0.0,79,0.00,CLR,,0.00,WeatherDisplay:10.37,2013-03-29 13:49:00,
2013-03-29 09:54:00,33.8,28.3,30.35,ENE,63,0.0,0.0,80,0.00,CLR,,0.00,WeatherDisplay:10.37,2013-03-29 13:54:00,
2013-03-29 09:59:00,34.2,27.7,30.36,ENE,63,0.0,0.0,77,0.00,CLR,,0.00,WeatherDisplay:10.37,2013-03-29 13:59:00,
2013-03-29 10:04:00,34.5,28.3,30.35,ENE,63,0.0,0.0,78,0.00,CLR,,0.00,WeatherDisplay:10.37,2013-03-29 14:04:00,
2013-03-29 10:10:00,34.9,28.1,30.35,ENE,63,0.0,0.0,76,0.00,CLR,,0.00,WeatherDisplay:10.37,2013-03-29 14:10:00,
2013-03-29 10:15:00,35.2,28.4,30.35,ENE,63,0.0,0.1,76,0.00,CLR,,0.00,WeatherDisplay:10.37,2013-03-29 14:15:00,
2013-03-29 10:20:00,35.4,27.9,30.35,ENE,63,0.0,0.0,74,0.00,CLR,,0.00,WeatherDisplay:10.37,2013-03-29 14:20:00,
2013-03-29 10:25:00,35.6,28.1,30.35,ENE,63,0.0,0.0,74,0.00,CLR,,0.00,WeatherDisplay:10.37,2013-03-29 14:25:00,
2013-03-29 10:30:00,35.9,28.1,30.34,ENE,63,0.0,0.0,73,0.00,CLR,,0.00,WeatherDisplay:10.37,2013-03-29 14:30:00,
2013-03-29 10:35:00,36.0,28.5,30.34,ENE,63,0.0,0.0,74,0.00,CLR,,0.00,WeatherDisplay:10.37,2013-03-29 14:35:00,
2013-03-29 10:40:00,36.2,28.4,30.34,ENE,63,0.0,0.0,73,0.00,CLR,,0.00,WeatherDisplay:10.37,2013-03-29 14:40:00,
2013-03-29 10:45:00,36.2,28.4,30.35,ENE,63,0.0,0.0,73,0.00,CLR,,0.00,WeatherDisplay:10.37,2013-03-29 14:45:00,
2013-03-29 10:50:00,36.3,28.5,30.34,ENE,63,0.0,0.0,73,0.00,CLR,,0.00,WeatherDisplay:10.37,2013-03-29 14:50:00,
2013-03-29 10:55:00,36.4,28.9,30.34,ENE,63,1.2,0.0,74,0.00,CLR,,0.00,WeatherDisplay:10.37,2013-03-29 14:55:00,
2013-03-29 11:00:00,36.7,29.2,30.35,ENE,63,0.0,0.0,74,0.00,CLR,,0.00,WeatherDisplay:10.37,2013-03-29 15:00:00,
2013-03-29 11:05:00,37.0,29.1,30.35,ENE,63,0.0,0.0,73,0.00,CLR,,0.00,WeatherDisplay:10.37,2013-03-29 15:05:00,
2013-03-29 11:10:00,37.4,29.5,30.35,ENE,63,0.0,0.0,73,0.00,CLR,,0.00,WeatherDisplay:10.37,2013-03-29 15:10:00,
2013-03-29 11:15:00,37.9,29.3,30.35,ENE,63,0.0,0.0,71,0.00,CLR,,0.00,WeatherDisplay:10.37,2013-03-29 15:15:00,
2013-03-29 11:20:00,38.3,29.7,30.35,ENE,63,0.0,0.0,71,0.00,CLR,,0.00,WeatherDisplay:10.37,2013-03-29 15:20:00,
2013-03-29 11:25:00,38.8,29.8,30.34,ENE,63,1.2,1.2,70,0.00,CLR,,0.00,WeatherDisplay:10.37,2013-03-29 15:25:00,
2013-03-29 11:30:00,39.3,30.3,30.35,ENE,63,0.0,0.0,70,0.00,CLR,,0.00,WeatherDisplay:10.37,2013-03-29 15:30:00,
2013-03-29 11:35:00,39.6,29.9,30.35,ENE,63,0.0,1.0,68,0.00,CLR,CLR,0.00,WeatherDisplay:10.37,2013-03-29 15:35:00,
2013-03-29 11:40:00,40.0,30.3,30.35,ENE,63,0.0,0.0,68,0.00,CLR,,0.00,WeatherDisplay:10.37,2013-03-29 15:40:00,
2013-03-29 11:45:00,40.2,30.5,30.35,ENE,63,0.0,0.0,68,0.00,CLR,CLR,0.00,WeatherDisplay:10.37,2013-03-29 15:45:00,
2013-03-29 11:50:00,40.5,29.6,30.35,ENE,63,0.0,1.0,65,0.00,CLR,CLR,0.00,WeatherDisplay:10.37,2013-03-29 15:50:00,
2013-03-29 11:55:00,40.6,30.5,30.35,ENE,63,0.0,0.0,67,0.00,CLR,,0.00,WeatherDisplay:10.37,2013-03-29 15:55:00,
2013-03-29 12:00:00,40.8,30.3,30.35,ENE,63,0.0,0.0,66,0.00,CLR,CLR,0.00,WeatherDisplay:10.37,2013-03-29 16:00:00,
2013-03-29 12:05:00,41.0,30.5,30.35,ENE,63,0.0,0.0,66,0.00,CLR,CLR,0.00,WeatherDisplay:10.37,2013-03-29 16:05:00,
2013-03-29 12:10:00,41.2,31.1,30.35,ENE,63,0.0,0.0,67,0.00,CLR,CLR,0.00,WeatherDisplay:10.37,2013-03-29 16:10:00,
2013-03-29 12:15:00,41.4,32.0,30.35,ENE,63,0.0,0.0,69,0.00,CLR,CLR,0.00,WeatherDisplay:10.37,2013-03-29 16:15:00,
2013-03-29 12:20:00,41.8,32.4,30.35,ENE,63,0.0,0.0,69,0.00,CLR,,0.00,WeatherDisplay:10.37,2013-03-29 16:20:00,
2013-03-29 12:25:00,42.1,31.2,30.35,ENE,63,0.0,0.0,65,0.00,CLR,,0.00,WeatherDisplay:10.37,2013-03-29 16:25:00,
2013-03-29 12:30:00,42.4,31.9,30.35,ENE,63,0.0,0.0,66,0.00,CLR,CLR,0.00,WeatherDisplay:10.37,2013-03-29 16:30:00,
2013-03-29 12:35:00,42.9,29.5,30.35,ENE,63,0.0,0.0,59,0.00,CLR,,0.00,WeatherDisplay:10.37,2013-03-29 16:35:00,
2013-03-29 12:40:00,43.3,29.5,30.35,ENE,63,0.0,0.0,58,0.00,CLR,CLR,0.00,WeatherDisplay:10.37,2013-03-29 16:40:00,
2013-03-29 12:45:00,43.7,29.9,30.35,SSE,148,2.0,6.0,58,0.00,CLR,CLR,0.00,WeatherDisplay:10.37,2013-03-29 16:45:00,
2013-03-29 12:50:00,44.1,29.4,30.35,South,188,7.6,7.8,56,0.00,CLR,,0.00,WeatherDisplay:10.37,2013-03-29 16:50:00,
2013-03-29 12:55:00,44.4,31.8,30.34,WSW,237,2.0,9.0,61,0.00,CLR,CLR,0.00,WeatherDisplay:10.37,2013-03-29 16:55:00,
2013-03-29 13:00:00,44.6,32.4,30.35,WNW,284,4.6,4.6,62,0.00,CLR,,0.00,WeatherDisplay:10.37,2013-03-29 17:00:00,
2013-03-29 13:05:00,44.7,32.5,30.35,West,264,5.8,5.8,62,0.00,CLR,,0.00,WeatherDisplay:10.37,2013-03-29 17:05:00,
2013-03-29 13:10:00,44.7,33.3,30.35,SW,228,5.3,5.3,64,0.00,CLR,,0.00,WeatherDisplay:10.37,2013-03-29 17:10:00,
2013-03-29 13:15:00,44.6,32.0,30.35,WSW,257,8.1,8.1,61,0.00,CLR,,0.00,WeatherDisplay:10.37,2013-03-29 17:15:00,
2013-03-29 13:20:00,44.4,32.2,30.35,West,274,5.8,5.8,62,0.00,CLR,,0.00,WeatherDisplay:10.37,2013-03-29 17:20:00,
2013-03-29 13:25:00,44.2,33.5,30.35,West,272,3.0,8.0,66,0.00,CLR,CLR,0.00,WeatherDisplay:10.37,2013-03-29 17:25:00,
2013-03-29 13:30:00,43.7,34.5,30.35,West,278,3.0,9.0,70,0.00,CLR,CLR,0.00,WeatherDisplay:10.37,2013-03-29 17:30:00,
2013-03-29 13:35:00,43.3,35.2,30.35,West,267,0.0,0.0,73,0.00,CLR,,0.00,WeatherDisplay:10.37,2013-03-29 17:35:00,
2013-03-29 13:40:00,43.1,35.4,30.35,NW,320,1.2,1.2,74,0.00,CLR,,0.00,WeatherDisplay:10.37,2013-03-29 17:40:00,
2013-03-29 13:45:00,42.9,35.5,30.35,WNW,302,0.0,1.0,75,0.00,CLR,CLR,0.00,WeatherDisplay:10.37,2013-03-29 17:45:00,
2013-03-29 13:50:00,42.6,35.6,30.34,NNW,343,0.0,2.0,76,0.00,CLR,CLR,0.00,WeatherDisplay:10.37,2013-03-29 17:50:00,
2013-03-29 13:55:00,42.2,34.5,30.34,NNE,21,0.0,0.0,74,0.00,CLR,,0.00,WeatherDisplay:10.37,2013-03-29 17:55:00,
2013-03-29 14:00:00,41.9,34.2,30.34,NNE,21,0.0,0.0,74,0.00,CLR,,0.00,WeatherDisplay:10.37,2013-03-29 18:00:00,
2013-03-29 14:05:00,41.8,34.5,30.34,NNE,21,0.0,0.0,75,0.00,CLR,,0.00,WeatherDisplay:10.37,2013-03-29 18:05:00,
2013-03-29 14:10:00,41.6,35.3,30.34,NNE,21,0.0,0.0,78,0.00,CLR,CLR,0.00,WeatherDisplay:10.37,2013-03-29 18:10:00,
2013-03-29 14:15:00,41.4,35.4,30.33,NNE,21,0.0,0.0,79,0.00,CLR,,0.00,WeatherDisplay:10.37,2013-03-29 18:15:00,
2013-03-29 14:20:00,41.3,35.3,30.33,NNE,21,0.0,2.0,79,0.00,CLR,CLR,0.00,WeatherDisplay:10.37,2013-03-29 18:20:00,
2013-03-29 14:25:00,41.2,35.5,30.33,NNE,21,0.0,1.0,80,0.00,CLR,CLR,0.00,WeatherDisplay:10.37,2013-03-29 18:25:00,
2013-03-29 14:30:00,41.1,34.8,30.33,NNE,21,0.0,0.0,78,0.00,CLR,,0.00,WeatherDisplay:10.37,2013-03-29 18:30:00,
2013-03-29 14:35:00,41.0,35.3,30.33,NNE,21,1.2,1.2,80,0.00,CLR,,0.00,WeatherDisplay:10.37,2013-03-29 18:35:00,
2013-03-29 14:40:00,41.0,35.9,30.33,NNE,21,0.0,0.0,82,0.00,CLR,CLR,0.00,WeatherDisplay:10.37,2013-03-29 18:40:00,
2013-03-29 14:45:00,40.9,35.5,30.32,NNE,21,0.0,0.0,81,0.00,CLR,,0.00,WeatherDisplay:10.37,2013-03-29 18:45:00,
2013-03-29 14:50:00,40.8,35.7,30.32,NNE,21,0.0,0.0,82,0.00,CLR,,0.00,WeatherDisplay:10.37,2013-03-29 18:50:00,
2013-03-29 14:55:00,40.8,36.6,30.32,NNE,21,0.0,0.0,85,0.00,CLR,CLR,0.00,WeatherDisplay:10.37,2013-03-29 18:55:00,
2013-03-29 15:00:00,40.9,37.0,30.31,NNE,21,0.0,0.0,86,0.00,CLR,,0.00,WeatherDisplay:10.37,2013-03-29 19:00:00,
2013-03-29 15:05:00,40.8,36.0,30.31,NNE,21,0.0,0.0,83,0.00,CLR,CLR,0.00,WeatherDisplay:10.37,2013-03-29 19:05:00,
2013-03-29 15:10:00,40.7,36.2,30.31,NNE,21,0.0,0.0,84,0.00,CLR,CLR,0.00,WeatherDisplay:10.37,2013-03-29 19:10:00,
2013-03-29 15:15:00,40.7,35.9,30.31,NNE,21,0.0,0.0,83,0.00,CLR,CLR,0.00,WeatherDisplay:10.37,2013-03-29 19:15:00,
2013-03-29 15:20:00,40.6,36.1,30.31,NNE,21,0.0,0.0,84,0.00,CLR,CLR,0.00,WeatherDisplay:10.37,2013-03-29 19:20:00,
2013-03-29 15:25:00,40.6,36.4,30.31,NNE,21,0.0,0.0,85,0.01,RA,,0.01,WeatherDisplay:10.37,2013-03-29 19:25:00,
2013-03-29 15:30:00,40.6,36.7,30.31,NNE,21,0.0,0.0,86,0.01,RA,,0.01,WeatherDisplay:10.37,2013-03-29 19:30:00,
2013-03-29 15:35:00,40.6,36.7,30.31,NNE,21,0.0,0.0,86,0.00,CLR,CLR,0.01,WeatherDisplay:10.37,2013-03-29 19:35:00,
2013-03-29 15:40:00,40.5,36.9,30.31,NNE,21,0.0,0.0,87,0.01,CLR,,0.01,WeatherDisplay:10.37,2013-03-29 19:40:00,
2013-03-29 15:45:00,40.5,36.9,30.31,NNE,21,0.0,2.0,87,0.00,CLR,CLR,0.01,WeatherDisplay:10.37,2013-03-29 19:45:00,
2013-03-29 15:50:00,40.4,36.8,30.31,NNE,21,0.0,0.0,87,0.01,RA,RA,0.02,WeatherDisplay:10.37,2013-03-29 19:50:00,
2013-03-29 15:55:00,40.3,37.0,30.31,NNE,21,0.0,0.0,88,0.01,RA,RA,0.02,WeatherDisplay:10.37,2013-03-29 19:55:00,
2013-03-29 16:00:00,40.2,37.2,30.31,NNE,21,0.0,1.0,89,0.00,,,0.02,WeatherDisplay:10.37,2013-03-29 20:00:00,
2013-03-29 16:05:00,40.1,37.4,30.31,NNE,21,1.2,0.0,90,0.03,RA,,0.03,WeatherDisplay:10.37,2013-03-29 20:05:00,
2013-03-29 16:10:00,40.1,37.1,30.31,NNE,21,1.2,0.0,89,0.03,RA,,0.03,WeatherDisplay:10.37,2013-03-29 20:10:00,
2013-03-29 16:15:00,40.0,37.0,30.30,NNE,21,0.0,2.0,89,0.00,CLR,CLR,0.03,WeatherDisplay:10.37,2013-03-29 20:15:00,
2013-03-29 16:20:00,39.9,37.2,30.30,NNE,21,0.0,2.0,90,0.00,CLR,CLR,0.03,WeatherDisplay:10.37,2013-03-29 20:20:00,
2013-03-29 16:25:00,40.0,37.6,30.30,NNE,21,0.0,2.0,91,0.00,CLR,CLR,0.03,WeatherDisplay:10.37,2013-03-29 20:25:00,
2013-03-29 16:30:00,40.0,37.9,30.30,NNE,21,0.0,2.0,92,0.00,CLR,CLR,0.03,WeatherDisplay:10.37,2013-03-29 20:30:00,
2013-03-29 16:35:00,40.1,37.7,30.30,NNE,21,0.0,0.0,91,0.00,CLR,CLR,0.03,WeatherDisplay:10.37,2013-03-29 20:35:00,
2013-03-29 16:40:00,40.1,38.0,30.29,NNE,21,0.0,0.0,92,0.03,RA,,0.04,WeatherDisplay:10.37,2013-03-29 20:40:00,
2013-03-29 16:45:00,40.1,37.7,30.30,NNE,21,0.0,0.0,91,0.01,RA,RA,0.04,WeatherDisplay:10.37,2013-03-29 20:45:00,
2013-03-29 16:50:00,40.1,37.4,30.29,NNE,21,0.0,0.0,90,0.02,,,0.04,WeatherDisplay:10.37,2013-03-29 20:50:00,
2013-03-29 16:55:00,40.2,37.5,30.29,NNE,21,0.0,0.0,90,0.02,CLR,,0.04,WeatherDisplay:10.37,2013-03-29 20:55:00,
2013-03-29 17:00:00,40.3,37.8,30.29,NNE,21,0.0,1.0,91,0.00,,,0.04,WeatherDisplay:10.37,2013-03-29 21:00:00,
2013-03-29 17:05:00,40.3,38.2,30.29,NNE,21,0.0,0.0,92,0.01,,,0.04,WeatherDisplay:10.37,2013-03-29 21:05:00,
2013-03-29 17:10:00,40.4,38.5,30.29,NNE,24,0.0,0.0,93,0.02,RA,,0.05,WeatherDisplay:10.37,2013-03-29 21:10:00,
2013-03-29 17:15:00,40.4,38.5,30.29,NNE,24,0.0,0.0,93,0.01,RA,RA,0.05,WeatherDisplay:10.37,2013-03-29 21:15:00,
2013-03-29 17:20:00,40.3,38.4,30.29,NNE,24,0.0,1.0,93,0.00,,,0.05,WeatherDisplay:10.37,2013-03-29 21:20:00,
2013-03-29 17:25:00,40.2,38.3,30.28,NNE,24,0.0,0.0,93,0.00,CLR,CLR,0.05,WeatherDisplay:10.37,2013-03-29 21:25:00,
2013-03-29 17:30:00,40.2,38.3,30.28,NNE,24,0.0,0.0,93,0.00,,,0.05,WeatherDisplay:10.37,2013-03-29 21:30:00,
2013-03-29 17:35:00,40.2,38.6,30.28,NNE,24,0.0,0.0,94,0.02,,,0.05,WeatherDisplay:10.37,2013-03-29 21:35:00,
2013-03-29 17:40:00,40.3,39.0,30.28,ENE,76,2.3,2.3,95,0.01,,,0.05,WeatherDisplay:10.37,2013-03-29 21:40:00,
2013-03-29 17:45:00,40.4,39.1,30.28,ENE,76,1.2,0.0,95,0.01,,,0.05,WeatherDisplay:10.37,2013-03-29 21:45:00,
2013-03-29 17:50:00,40.4,39.1,30.28,SSE,168,2.3,2.3,95,0.01,,,0.05,WeatherDisplay:10.37,2013-03-29 21:50:00,
2013-03-29 17:55:00,40.4,39.1,30.28,SSE,167,0.0,0.0,95,0.01,,,0.05,WeatherDisplay:10.37,2013-03-29 21:55:00,
2013-03-29 18:00:00,40.4,38.8,30.28,SSE,167,0.0,0.0,94,0.00,,,0.05,WeatherDisplay:10.37,2013-03-29 22:00:00,
2013-03-29 18:05:00,40.4,39.1,30.29,South,169,0.0,0.0,95,0.01,,,0.05,WeatherDisplay:10.37,2013-03-29 22:05:00,
2013-03-29 18:10:00,40.4,38.8,30.28,SSE,165,4.6,4.6,94,0.00,,,0.05,WeatherDisplay:10.37,2013-03-29 22:10:00,
2013-03-29 18:15:00,40.3,38.7,30.28,SW,229,0.0,0.0,94,0.01,RA,,0.06,WeatherDisplay:10.37,2013-03-29 22:15:00,
2013-03-29 18:20:00,40.3,38.4,30.28,SW,229,0.0,0.0,93,0.01,RA,,0.06,WeatherDisplay:10.37,2013-03-29 22:20:00,
2013-03-29 18:25:00,40.3,38.4,30.28,SW,229,0.0,0.0,93,0.01,RA,RA,0.07,WeatherDisplay:10.37,2013-03-29 22:25:00,
2013-03-29 18:30:00,40.3,38.5,30.28,SW,229,0.0,0.0,93,0.01,RA,RA,0.07,WeatherDisplay:10.37,2013-03-29 22:30:00,
2013-03-29 18:35:00,40.3,38.7,30.29,SW,229,0.0,0.0,94,0.02,,,0.07,WeatherDisplay:10.37,2013-03-29 22:35:00,
2013-03-29 18:40:00,40.3,38.7,30.29,SW,229,0.0,0.0,94,0.00,CLR,CLR,0.07,WeatherDisplay:10.37,2013-03-29 22:40:00,
2013-03-29 18:45:00,40.3,38.7,30.28,SW,229,0.0,0.0,94,0.02,CLR,,0.07,WeatherDisplay:10.37,2013-03-29 22:45:00,
2013-03-29 18:50:00,40.2,38.6,30.28,SW,229,0.0,0.0,94,0.02,CLR,,0.07,WeatherDisplay:10.37,2013-03-29 22:50:00,
2013-03-29 18:55:00,40.1,38.5,30.29,SW,229,0.0,0.0,94,0.00,CLR,CLR,0.07,WeatherDisplay:10.37,2013-03-29 22:55:00,
2013-03-29 19:00:00,40.1,38.5,30.29,SW,229,0.0,1.0,94,0.00,CLR,CLR,0.07,WeatherDisplay:10.37,2013-03-29 23:00:00,
2013-03-29 19:05:00,40.0,38.7,30.28,SW,229,0.0,0.0,95,0.00,CLR,CLR,0.07,WeatherDisplay:10.37,2013-03-29 23:05:00,
2013-03-29 19:10:00,40.0,38.7,30.28,SW,229,0.0,0.0,95,0.00,CLR,CLR,0.07,WeatherDisplay:10.37,2013-03-29 23:10:00,
2013-03-29 19:15:00,39.9,38.6,30.28,SW,229,0.0,0.0,95,0.01,CLR,,0.07,WeatherDisplay:10.37,2013-03-29 23:15:00,
2013-03-29 19:20:00,39.8,38.5,30.28,SW,229,0.0,0.0,95,0.00,CLR,CLR,0.07,WeatherDisplay:10.37,2013-03-29 23:20:00,
2013-03-29 19:25:00,39.7,38.4,30.28,SW,229,0.0,0.0,95,0.00,CLR,,0.07,WeatherDisplay:10.37,2013-03-29 23:25:00,
2013-03-29 19:30:00,39.7,38.4,30.28,SW,229,0.0,0.0,95,0.00,CLR,,0.07,WeatherDisplay:10.37,2013-03-29 23:30:00,
2013-03-29 19:35:00,39.6,38.3,30.28,SW,229,0.0,1.0,95,0.00,CLR,CLR,0.07,WeatherDisplay:10.37,2013-03-29 23:35:00,
2013-03-29 19:40:00,39.5,38.2,30.28,SW,229,0.0,0.1,95,0.00,CLR,,0.07,WeatherDisplay:10.37,2013-03-29 23:40:00,
2013-03-29 19:45:00,39.4,38.1,30.27,SW,229,0.0,0.0,95,0.00,CLR,CLR,0.07,WeatherDisplay:10.37,2013-03-29 23:45:00,
2013-03-29 19:50:00,39.4,38.1,30.28,SW,229,0.0,0.0,95,0.00,CLR,CLR,0.07,WeatherDisplay:10.37,2013-03-29 23:50:00,
2013-03-29 19:55:00,39.4,38.0,30.27,SW,229,0.0,0.0,95,0.00,CLR,CLR,0.07,WeatherDisplay:10.37,2013-03-29 23:55:00,
2013-03-29 20:00:00,39.3,38.0,30.27,SW,229,0.0,0.0,95,0.00,CLR,,0.07,WeatherDisplay:10.37,2013-03-30 00:00:00,
2013-03-29 20:05:00,39.2,37.9,30.27,SW,229,0.0,1.0,95,0.00,CLR,CLR,0.07,WeatherDisplay:10.37,2013-03-30 00:05:00,
2013-03-29 20:10:00,39.1,37.8,30.27,SW,229,0.0,0.0,95,0.00,CLR,,0.07,WeatherDisplay:10.37,2013-03-30 00:10:00,
2013-03-29 20:15:00,39.1,38.1,30.27,SW,229,0.0,0.0,96,0.00,,,0.07,WeatherDisplay:10.37,2013-03-30 00:15:00,
2013-03-29 20:20:00,39.0,38.0,30.27,SW,229,0.0,0.0,96,0.00,,,0.07,WeatherDisplay:10.37,2013-03-30 00:20:00,
2013-03-29 20:25:00,39.0,37.7,30.27,SW,229,0.0,0.0,95,0.00,,,0.07,WeatherDisplay:10.37,2013-03-30 00:25:00,
2013-03-29 20:30:00,38.9,37.6,30.27,SW,229,0.0,0.0,95,0.00,,,0.07,WeatherDisplay:10.37,2013-03-30 00:30:00,
2013-03-29 20:35:00,38.8,37.5,30.27,SW,229,0.0,3.0,95,0.00,,,0.07,WeatherDisplay:10.37,2013-03-30 00:35:00,
2013-03-29 20:40:00,38.7,37.7,30.27,SW,229,0.0,0.0,96,0.00,,,0.07,WeatherDisplay:10.37,2013-03-30 00:40:00,
2013-03-29 20:45:00,38.6,37.6,30.27,SW,229,0.0,0.0,96,0.00,,,0.07,WeatherDisplay:10.37,2013-03-30 00:45:00,
2013-03-29 20:50:00,38.6,37.6,30.27,SW,229,0.0,1.0,96,0.00,,,0.07,WeatherDisplay:10.37,2013-03-30 00:50:00,
2013-03-29 20:55:00,38.5,37.5,30.27,SW,229,0.0,1.0,96,0.00,,,0.07,WeatherDisplay:10.37,2013-03-30 00:55:00,
2013-03-29 21:00:00,38.4,37.4,30.27,ENE,61,1.0,5.0,96,0.00,,,0.07,WeatherDisplay:10.37,2013-03-30 01:00:00,
2013-03-29 21:05:00,38.3,37.3,30.28,NE,56,0.0,2.0,96,0.00,,,0.07,WeatherDisplay:10.37,2013-03-30 01:05:00,
2013-03-29 21:10:00,38.3,37.3,30.27,NE,56,2.3,0.0,96,0.00,,,0.07,WeatherDisplay:10.37,2013-03-30 01:10:00,
2013-03-29 21:15:00,38.2,37.2,30.28,NE,56,0.0,0.0,96,0.00,,,0.07,WeatherDisplay:10.37,2013-03-30 01:15:00,
2013-03-29 21:20:00,38.2,37.2,30.28,NE,56,1.1,1.1,96,0.00,,,0.07,WeatherDisplay:10.37,2013-03-30 01:20:00,
2013-03-29 21:25:00,38.2,37.2,30.27,NE,56,1.2,1.2,96,0.01,RA,,0.08,WeatherDisplay:10.37,2013-03-30 01:25:00,
2013-03-29 21:30:00,38.2,37.2,30.27,NE,56,0.0,1.0,96,0.01,RA,RA,0.08,WeatherDisplay:10.37,2013-03-30 01:30:00,
2013-03-29 21:35:00,38.2,37.1,30.27,NE,56,0.0,0.0,96,0.00,,,0.08,WeatherDisplay:10.37,2013-03-30 01:35:00,
2013-03-29 21:40:00,38.1,37.1,30.27,NE,56,0.0,0.0,96,0.00,CLR,CLR,0.08,WeatherDisplay:10.37,2013-03-30 01:40:00,
2013-03-29 21:45:00,38.1,37.1,30.27,NE,56,0.0,0.0,96,0.00,,,0.08,WeatherDisplay:10.37,2013-03-30 01:45:00,
2013-03-29 21:50:00,38.1,37.1,30.27,NE,56,0.0,0.0,96,0.01,,,0.08,WeatherDisplay:10.37,2013-03-30 01:50:00,
2013-03-29 21:55:00,38.0,37.0,30.27,NE,56,0.0,0.0,96,0.01,,,0.08,WeatherDisplay:10.37,2013-03-30 01:55:00,
2013-03-29 22:00:00,38.0,36.9,30.27,NE,56,0.0,0.0,96,0.00,,,0.08,WeatherDisplay:10.37,2013-03-30 02:00:00,
2013-03-29 22:05:00,37.9,36.9,30.27,NE,56,0.0,0.0,96,0.01,,,0.08,WeatherDisplay:10.37,2013-03-30 02:05:00,
2013-03-29 22:10:00,37.9,36.9,30.27,NE,56,0.0,0.0,96,0.01,,,0.08,WeatherDisplay:10.37,2013-03-30 02:10:00,
2013-03-29 22:15:00,37.9,36.9,30.27,NE,56,0.0,0.0,96,0.00,,,0.08,WeatherDisplay:10.37,2013-03-30 02:15:00,
2013-03-29 22:20:00,37.9,36.9,30.27,NE,56,0.0,0.0,96,0.01,,,0.08,WeatherDisplay:10.37,2013-03-30 02:20:00,
2013-03-29 22:25:00,37.9,36.9,30.28,NE,56,0.0,0.0,96,0.00,,,0.08,WeatherDisplay:10.37,2013-03-30 02:25:00,
2013-03-29 22:30:00,37.9,36.9,30.28,NE,56,0.0,0.0,96,0.00,,,0.08,WeatherDisplay:10.37,2013-03-30 02:30:00,
2013-03-29 22:35:00,37.9,36.9,30.28,NE,56,0.0,0.0,96,0.00,,,0.08,WeatherDisplay:10.37,2013-03-30 02:35:00,
2013-03-29 22:40:00,37.9,36.9,30.29,NE,56,0.0,0.0,96,0.00,,,0.08,WeatherDisplay:10.37,2013-03-30 02:40:00,
2013-03-29 22:45:00,37.9,37.9,30.29,NE,56,0.0,0.0,100,0.00,,,0.08,WeatherDisplay:10.37,2013-03-30 02:45:00,
2013-03-29 22:50:00,37.9,37.9,30.28,NE,56,0.0,0.0,100,0.00,,,0.08,WeatherDisplay:10.37,2013-03-30 02:50:00,
2013-03-29 22:55:00,38.0,38.0,30.29,NE,56,0.0,0.0,100,0.00,,,0.08,WeatherDisplay:10.37,2013-03-30 02:55:00,
2013-03-29 23:00:00,38.0,38.0,30.28,NE,56,0.0,0.0,100,0.00,,,0.08,WeatherDisplay:10.37,2013-03-30 03:00:00,
2013-03-29 23:05:00,38.0,38.0,30.28,NE,56,0.0,0.0,100,0.00,RA,RA,0.09,WeatherDisplay:10.37,2013-03-30 03:05:00,
2013-03-29 23:10:00,38.0,38.0,30.28,NE,56,0.0,0.0,100,0.00,RA,RA,0.09,WeatherDisplay:10.37,2013-03-30 03:10:00,
2013-03-29 23:15:00,38.0,38.0,30.28,NE,56,0.0,0.0,100,0.01,,,0.09,WeatherDisplay:10.37,2013-03-30 03:15:00,
2013-03-29 23:20:00,38.0,38.0,30.28,NE,56,0.0,0.0,100,0.01,CLR,,0.09,WeatherDisplay:10.37,2013-03-30 03:20:00,
2013-03-29 23:25:00,37.9,37.9,30.28,NE,56,0.0,0.0,100,0.01,CLR,,0.09,WeatherDisplay:10.37,2013-03-30 03:25:00,
2013-03-29 23:30:00,38.0,38.0,30.27,NE,56,0.0,0.0,100,0.01,CLR,,0.09,WeatherDisplay:10.37,2013-03-30 03:30:00,
2013-03-29 23:35:00,37.9,37.9,30.27,NE,56,0.0,0.0,100,0.01,CLR,,0.09,WeatherDisplay:10.37,2013-03-30 03:35:00,
2013-03-29 23:40:00,37.9,37.9,30.27,NE,56,0.0,0.0,100,0.01,CLR,,0.09,WeatherDisplay:10.37,2013-03-30 03:40:00,
2013-03-29 23:45:00,37.9,37.9,30.27,NE,56,0.0,0.0,100,0.02,RA,,0.10,WeatherDisplay:10.37,2013-03-30 03:45:00,
2013-03-29 23:50:00,37.9,37.9,30.27,NE,56,0.0,0.0,100,0.02,RA,,0.10,WeatherDisplay:10.37,2013-03-30 03:50:00,
2013-03-29 23:55:00,37.9,37.9,30.26,NE,56,1.2,0.0,100,0.02,,,0.10,WeatherDisplay:10.37,2013-03-30 03:55:00,